Time;durP1;ratioP1;P1;durP2;ratioP2;P2;SDS_P1;SDS_P2;PMS_P1;PMS_P2;Temp;Humidity;BMP_temperature;BMP_pressure;BME280_temperature;BME280_humidity;BME280_pressure;Samples;Min_cycle;Max_cycle;Signal;HPM_P1;HPM_P2
2022/12/15 00:40:38;;;;;;;19.88;10.98;;;0.40;99.90;;;;;;4838265;29;20144;-79
2022/12/15 00:43:05;;;;;;;20.15;11.48;;;0.30;99.90;;;;;;4833515;29;20674;-80
2022/12/15 00:48:17;;;;;;;19.20;11.00;;;0.30;99.90;;;;;;4836772;29;20054;-80
2022/12/15 00:50:52;;;;;;;23.00;12.73;;;0.30;99.90;;;;;;4831775;29;20141;-80
2022/12/15 01:21:02;;;;;;;27.48;15.35;;;0.30;99.90;;;;;;4841991;29;20406;-80
2022/12/15 01:23:30;;;;;;;27.90;14.30;;;0.30;99.90;;;;;;4838261;29;20622;-80
2022/12/15 01:25:57;;;;;;;27.98;15.43;;;0.30;99.90;;;;;;4838092;29;20432;-81
2022/12/15 01:28:24;;;;;;;27.13;14.70;;;0.30;99.90;;;;;;4835216;29;20497;-80
2022/12/15 01:30:52;;;;;;;25.10;13.45;;;0.20;99.90;;;;;;4833600;29;20096;-79
2022/12/15 01:33:20;;;;;;;27.73;15.07;;;0.20;99.90;;;;;;4831777;29;20051;-79
2022/12/15 01:36:00;;;;;;;26.40;14.27;;;0.20;99.90;;;;;;4827992;29;20382;-79
2022/12/15 01:38:28;;;;;;;28.00;13.93;;;0.20;99.90;;;;;;4826690;29;20583;-79
2022/12/15 01:41:00;;;;;;;27.58;15.35;;;0.20;99.90;;;;;;4834302;29;20587;-80
2022/12/15 01:43:34;;;;;;;29.95;15.50;;;0.10;99.90;;;;;;4832777;29;20058;-81
2022/12/15 01:46:15;;;;;;;27.65;14.88;;;0.10;99.90;;;;;;4835597;29;20058;-79
2022/12/15 01:48:48;;;;;;;32.30;15.63;;;0.10;99.90;;;;;;4834452;29;20063;-80
2022/12/15 01:51:33;;;;;;;32.40;17.70;;;0.10;99.90;;;;;;4832417;29;20065;-80
2022/12/15 01:54:22;;;;;;;40.25;20.45;;;0.00;99.90;;;;;;4832390;29;20062;-80
2022/12/15 01:56:56;;;;;;;34.35;17.33;;;0.10;99.90;;;;;;4829457;29;20054;-80
2022/12/15 01:59:35;;;;;;;34.03;17.17;;;-0.10;99.90;;;;;;4836849;29;20081;-80
2022/12/15 02:02:09;;;;;;;40.65;19.52;;;-0.10;99.90;;;;;;4831043;29;20120;-80
2022/12/15 02:04:40;;;;;;;37.70;19.33;;;0.10;99.90;;;;;;4830262;29;20054;-80
2022/12/15 02:07:11;;;;;;;;;;;0.20;99.90;;;;;;4839588;29;20080;-79
2022/12/15 02:09:46;;;;;;;26.38;13.18;;;0.20;99.90;;;;;;4834663;29;20011;-80
2022/12/15 02:12:57;;;;;;;31.30;16.33;;;0.10;99.90;;;;;;4848325;29;20058;-80
2022/12/15 02:16:01;;;;;;;31.25;15.75;;;0.00;99.90;;;;;;4841845;29;20046;-79
2022/12/15 02:19:22;;;;;;;36.63;18.00;;;0.10;99.90;;;;;;4836794;29;20050;-80
2022/12/15 02:22:13;;;;;;;31.15;16.40;;;1.40;99.90;;;;;;4813238;29;20556;-81
2022/12/15 02:25:09;;;;;;;30.92;16.40;;;0.10;99.90;;;;;;4829149;29;20061;-81
2022/12/15 02:27:55;;;;;;;30.40;15.43;;;0.00;99.90;;;;;;4841524;29;20051;-81
2022/12/15 02:30:43;;;;;;;27.77;16.27;;;0.00;99.90;;;;;;4844628;29;20066;-81
2022/12/15 02:33:48;;;;;;;32.80;16.67;;;-0.10;99.90;;;;;;4840636;29;20525;-81
2022/12/15 02:36:36;;;;;;;33.90;16.88;;;0.40;99.90;;;;;;4839644;29;20497;-78
2022/12/15 02:39:12;;;;;;;;;;;-0.20;99.90;;;;;;4847436;29;20521;-79
2022/12/15 02:41:57;;;;;;;28.60;15.88;;;0.00;99.90;;;;;;4828843;29;19925;-79
2022/12/15 02:44:53;;;;;;;29.83;14.70;;;0.60;99.90;;;;;;4838836;29;20425;-79
2022/12/15 02:47:34;;;;;;;37.90;19.27;;;0.00;99.90;;;;;;4836227;29;20154;-80
2022/12/15 02:50:18;;;;;;;38.95;18.52;;;0.00;99.90;;;;;;4838344;29;20061;-79
2022/12/15 02:52:58;;;;;;;39.47;19.38;;;1.10;99.90;;;;;;4834847;29;20412;-79
2022/12/15 02:56:16;;;;;;;43.42;20.63;;;0.10;99.90;;;;;;4834016;29;20137;-79
2022/12/15 02:59:10;;;;;;;38.90;18.40;;;-0.20;99.90;;;;;;4836934;29;20505;-79
2022/12/15 03:01:57;;;;;;;36.35;18.75;;;0.00;99.90;;;;;;4836314;29;20058;-79
2022/12/15 03:04:35;;;;;;;39.25;20.00;;;0.10;99.90;;;;;;4834798;29;20150;-81
2022/12/15 03:07:11;;;;;;;44.20;22.77;;;0.10;99.90;;;;;;4832903;29;20058;-79
2022/12/15 03:09:49;;;;;;;44.22;22.33;;;1.50;99.90;;;;;;4827161;29;20133;-80
2022/12/15 03:12:28;;;;;;;46.28;21.75;;;0.40;99.90;;;;;;4828885;29;20082;-79
2022/12/15 03:14:58;;;;;;;34.55;15.23;;;1.40;99.90;;;;;;4831435;29;20050;-79
2022/12/15 03:17:37;;;;;;;43.95;20.42;;;0.00;99.90;;;;;;4837957;29;20134;-79
2022/12/15 03:20:17;;;;;;;42.67;20.88;;;0.20;99.90;;;;;;4833222;29;20057;-81
2022/12/15 03:22:54;;;;;;;42.67;20.10;;;0.20;99.90;;;;;;4829728;29;20058;-80
2022/12/15 03:25:30;;;;;;;44.28;21.52;;;0.20;99.90;;;;;;4832764;29;20085;-79
2022/12/15 03:28:09;;;;;;;49.90;20.75;;;1.30;99.90;;;;;;4845600;29;20084;-82
2022/12/15 03:30:36;;;;;;;50.40;22.73;;;0.10;99.90;;;;;;4852620;29;20058;-80
2022/12/15 03:33:03;;;;;;;53.38;23.83;;;0.10;99.90;;;;;;4857910;29;20055;-82
2022/12/15 03:35:30;;;;;;;43.95;21.20;;;0.20;99.90;;;;;;4859390;29;20062;-83
2022/12/15 03:37:56;;;;;;;47.38;21.75;;;0.20;99.90;;;;;;4857863;29;20050;-81
2022/12/15 03:40:23;;;;;;;43.38;20.77;;;0.20;99.90;;;;;;4854113;29;20501;-80
2022/12/15 03:42:53;;;;;;;43.05;18.67;;;0.10;99.90;;;;;;4840661;29;20051;-80
2022/12/15 03:45:28;;;;;;;41.10;18.35;;;0.10;99.90;;;;;;4833823;29;20064;-81
2022/12/15 03:47:58;;;;;;;45.10;19.10;;;0.00;99.90;;;;;;4831306;29;20137;-80
2022/12/15 03:50:27;;;;;;;44.03;19.98;;;0.10;99.90;;;;;;4841272;29;20110;-81
2022/12/15 03:52:58;;;;;;;38.55;19.83;;;0.00;99.90;;;;;;4839858;29;20057;-80
2022/12/15 03:55:27;;;;;;;46.33;20.50;;;0.00;99.90;;;;;;4838197;29;20452;-80
2022/12/15 03:57:59;;;;;;;43.60;18.52;;;0.10;99.90;;;;;;4833500;29;20058;-80
2022/12/15 04:00:27;;;;;;;45.05;21.30;;;0.00;99.90;;;;;;4834178;29;20145;-80
2022/12/15 04:03:02;;;;;;;43.08;20.77;;;0.20;99.90;;;;;;4831652;29;20059;-80
2022/12/15 04:05:32;;;;;;;;;;;0.40;99.90;;;;;;4830143;29;20740;-79
2022/12/15 04:08:10;;;;;;;40.83;19.30;;;0.30;99.90;;;;;;4831192;29;19928;-81
2022/12/15 04:10:37;;;;;;;41.30;19.38;;;0.00;99.90;;;;;;4839225;29;20439;-78
2022/12/15 04:13:12;;;;;;;39.00;19.70;;;0.40;99.90;;;;;;4843634;29;20165;-81
2022/12/15 04:15:44;;;;;;;40.92;19.00;;;0.40;99.90;;;;;;4830664;29;20054;-80
2022/12/15 04:18:13;;;;;;;48.03;20.88;;;-0.20;99.90;;;;;;4833498;29;20050;-80
2022/12/15 04:20:45;;;;;;;44.78;20.90;;;0.00;99.90;;;;;;4833949;29;20137;-78
2022/12/15 04:23:18;;;;;;;43.80;20.75;;;1.40;99.90;;;;;;4841090;29;20103;-79
2022/12/15 05:33:34;;;;;;;51.38;22.70;;;1.00;99.90;;;;;;4839023;29;20375;-79
2022/12/15 05:36:07;;;;;;;62.53;25.77;;;0.10;99.90;;;;;;4839424;29;20054;-79
2022/12/15 05:38:43;;;;;;;56.10;24.80;;;0.10;99.90;;;;;;4829818;29;20512;-81
2022/12/15 05:41:22;;;;;;;55.70;24.30;;;0.10;99.90;;;;;;4838529;29;20054;-79
2022/12/15 05:44:04;;;;;;;59.50;25.88;;;-0.20;99.90;;;;;;4839135;29;20058;-80
2022/12/15 05:46:35;;;;;;;60.65;23.48;;;0.00;99.90;;;;;;4836637;29;20168;-79
2022/12/15 05:49:07;;;;;;;55.35;24.20;;;0.00;99.90;;;;;;4832670;29;20058;-80
2022/12/15 05:51:47;;;;;;;56.38;26.67;;;0.00;99.90;;;;;;4841807;29;20058;-79
2022/12/15 05:54:18;;;;;;;57.92;27.63;;;1.20;99.90;;;;;;4832097;29;20059;-80
2022/12/15 05:56:50;;;;;;;68.85;28.35;;;1.30;99.90;;;;;;4831488;29;20103;-79
2022/12/15 05:59:22;;;;;;;57.45;26.00;;;0.00;99.90;;;;;;4828597;29;20070;-80
2022/12/15 06:01:50;;;;;;;54.92;23.52;;;0.00;99.90;;;;;;4833817;29;20118;-79
2022/12/15 06:04:23;;;;;;;;;;;0.10;99.90;;;;;;4839783;29;20155;-80
2022/12/15 06:06:50;;;;;;;;;;;0.90;99.90;;;;;;4838218;29;19924;-79
2022/12/15 06:09:19;;;;;;;44.80;21.85;;;0.30;99.90;;;;;;4836283;29;19924;-79
2022/12/15 06:11:52;;;;;;;47.22;21.42;;;0.30;99.90;;;;;;4833330;29;20509;-79
2022/12/15 06:14:19;;;;;;;;;;;1.20;99.90;;;;;;4831250;29;20061;-82
2022/12/15 06:16:59;;;;;;;49.70;22.65;;;1.60;99.90;;;;;;4842224;29;19932;-81
2022/12/15 06:19:27;;;;;;;43.97;19.83;;;0.00;99.90;;;;;;4841393;29;20524;-80
2022/12/15 06:22:05;;;;;;;40.97;20.33;;;0.00;99.90;;;;;;4841991;29;20050;-79
2022/12/15 06:24:34;;;;;;;41.22;21.23;;;1.10;99.90;;;;;;4839275;29;20062;-79
2022/12/15 06:27:07;;;;;;;40.33;20.23;;;-0.20;99.90;;;;;;4835598;29;20128;-80
2022/12/15 06:29:49;;;;;;;34.60;19.35;;;-0.20;99.90;;;;;;4838130;29;20060;-81
2022/12/15 06:32:20;;;;;;;41.92;19.70;;;1.20;99.90;;;;;;4831582;29;20073;-81
2022/12/15 06:34:58;;;;;;;31.88;16.83;;;-0.10;99.90;;;;;;4831547;29;20054;-79
2022/12/15 06:37:27;;;;;;;42.28;20.15;;;-0.20;99.90;;;;;;4828845;29;20050;-80
2022/12/15 06:40:05;;;;;;;41.15;21.20;;;0.60;99.90;;;;;;4841024;29;20058;-81
2022/12/15 06:42:34;;;;;;;45.33;21.77;;;1.20;99.90;;;;;;4834812;29;20500;-81
2022/12/15 06:45:07;;;;;;;40.45;21.52;;;-0.20;99.90;;;;;;4839346;29;20064;-80
2022/12/15 06:47:37;;;;;;;36.25;19.70;;;-0.20;99.90;;;;;;4836725;29;20536;-81
2022/12/15 06:50:04;;;;;;;38.85;20.10;;;0.70;99.90;;;;;;4835883;29;20054;-81
2022/12/15 06:52:39;;;;;;;42.78;21.33;;;-0.30;99.90;;;;;;4833674;29;20492;-80
2022/12/15 06:55:10;;;;;;;43.30;21.00;;;0.50;99.90;;;;;;4831303;29;20056;-81
2022/12/15 07:00:45;;;;;;;38.17;20.67;;;-0.10;99.90;;;;;;4834637;29;20062;-80
2022/12/15 07:03:20;;;;;;;42.15;22.55;;;-0.10;99.90;;;;;;4841081;29;20070;-81
2022/12/15 07:06:06;;;;;;;42.05;20.58;;;0.00;99.90;;;;;;4850534;29;20075;-80
2022/12/15 07:08:36;;;;;;;45.42;22.75;;;-0.20;99.90;;;;;;4838819;29;20517;-80
2022/12/15 07:11:10;;;;;;;56.65;24.95;;;0.40;99.90;;;;;;4839490;29;20137;-81
2022/12/15 07:13:39;;;;;;;46.83;22.63;;;-0.20;99.90;;;;;;4837319;29;20065;-80
2022/12/15 07:16:11;;;;;;;45.38;22.00;;;-0.10;99.90;;;;;;4834668;29;20054;-82
2022/12/15 07:18:40;;;;;;;48.53;24.42;;;-0.10;99.90;;;;;;4833892;29;20149;-82
2022/12/15 07:21:09;;;;;;;47.67;23.17;;;-0.10;99.90;;;;;;4827996;29;20536;-80
2022/12/15 07:23:38;;;;;;;48.97;23.83;;;-0.20;99.90;;;;;;4839541;29;20082;-81
2022/12/15 07:26:23;;;;;;;50.72;23.88;;;-0.10;99.90;;;;;;4837394;29;20062;-81
2022/12/15 07:28:54;;;;;;;52.95;24.42;;;-0.10;99.90;;;;;;4840701;29;20041;-82
2022/12/15 07:31:25;;;;;;;57.60;27.38;;;0.90;99.90;;;;;;4833905;29;20133;-82
2022/12/15 07:34:01;;;;;;;63.53;28.23;;;0.60;99.90;;;;;;4840783;29;20082;-82
2022/12/15 07:36:39;;;;;;;56.70;25.55;;;0.30;99.90;;;;;;4834962;29;20610;-82
2022/12/15 07:39:18;;;;;;;57.17;25.20;;;0.00;99.90;;;;;;4831236;29;20500;-82
2022/12/15 07:41:46;;;;;;;51.03;23.98;;;0.40;99.90;;;;;;4843654;29;20123;-83
2022/12/15 07:44:13;;;;;;;46.10;22.27;;;0.00;99.90;;;;;;4835897;29;20056;-81
2022/12/15 07:46:40;;;;;;;48.53;24.52;;;0.00;99.90;;;;;;4837090;29;20072;-83
2022/12/15 07:49:09;;;;;;;55.95;25.08;;;0.00;99.90;;;;;;4835175;29;20088;-80
2022/12/15 07:51:35;;;;;;;62.13;26.45;;;0.00;99.90;;;;;;4845687;29;20064;-81
2022/12/15 07:54:02;;;;;;;50.35;26.17;;;0.00;99.90;;;;;;4838401;29;20062;-82
2022/12/15 07:56:29;;;;;;;59.60;27.35;;;0.00;99.90;;;;;;4843989;29;20143;-80
2022/12/15 07:59:04;;;;;;;58.85;26.58;;;0.00;99.90;;;;;;4842987;29;20487;-82
2022/12/15 08:01:31;;;;;;;59.20;27.10;;;0.00;99.90;;;;;;4837805;29;20046;-82
2022/12/15 08:03:58;;;;;;;57.72;27.23;;;0.10;99.90;;;;;;4838601;29;20057;-82
2022/12/15 08:06:25;;;;;;;60.58;28.38;;;0.20;99.90;;;;;;4841849;29;20052;-83
2022/12/15 08:08:52;;;;;;;62.00;27.60;;;0.20;99.90;;;;;;4830061;29;20050;-82
2022/12/15 08:11:21;;;;;;;47.88;23.75;;;0.10;99.90;;;;;;4839494;29;20056;-82
2022/12/15 08:13:48;;;;;;;52.22;24.60;;;0.00;99.90;;;;;;4836849;29;20042;-81
2022/12/15 08:16:29;;;;;;;48.40;23.83;;;0.00;99.90;;;;;;4835317;29;20425;-82
2022/12/15 08:18:56;;;;;;;54.17;25.73;;;0.00;99.90;;;;;;4831831;29;20069;-81
2022/12/15 08:21:23;;;;;;;50.35;25.50;;;0.00;99.90;;;;;;4828681;29;20050;-80
2022/12/15 08:23:50;;;;;;;51.58;25.77;;;0.00;99.90;;;;;;4835155;29;20477;-81
2022/12/15 08:26:17;;;;;;;54.35;25.77;;;0.10;99.90;;;;;;4836847;29;20114;-82
2022/12/15 08:28:44;;;;;;;53.50;25.85;;;0.10;99.90;;;;;;4832684;29;20060;-82
2022/12/15 08:31:14;;;;;;;54.67;26.10;;;0.20;99.90;;;;;;4834130;29;20115;-79
2022/12/15 08:33:42;;;;;;;47.03;23.90;;;0.20;99.90;;;;;;4834801;29;20056;-82
2022/12/15 08:36:11;;;;;;;58.42;26.60;;;0.30;99.90;;;;;;4830635;29;20042;-82
2022/12/15 08:38:40;;;;;;;43.05;22.42;;;0.40;99.90;;;;;;4836442;29;20134;-81
2022/12/15 08:41:08;;;;;;;50.53;24.90;;;0.30;99.90;;;;;;4835809;29;20059;-81
2022/12/15 08:43:36;;;;;;;54.20;27.77;;;0.40;99.90;;;;;;4834075;29;20050;-80
2022/12/15 08:46:11;;;;;;;55.22;25.58;;;0.40;99.90;;;;;;4828907;29;20058;-81
2022/12/15 08:48:39;;;;;;;59.63;28.52;;;0.40;99.90;;;;;;4840376;29;20053;-80
2022/12/15 08:51:06;;;;;;;50.53;23.90;;;0.40;99.90;;;;;;4840371;29;20060;-81
2022/12/15 08:53:33;;;;;;;57.22;27.83;;;0.30;99.90;;;;;;4838235;29;20401;-81
2022/12/15 08:56:05;;;;;;;56.45;28.67;;;0.20;99.90;;;;;;4836384;29;20050;-80
2022/12/15 08:58:32;;;;;;;63.13;29.25;;;0.20;99.90;;;;;;4834231;29;20050;-81
2022/12/15 09:01:05;;;;;;;57.95;27.45;;;0.20;99.90;;;;;;4830994;29;20050;-81
2022/12/15 09:03:32;;;;;;;60.13;28.45;;;0.10;99.90;;;;;;4831463;29;20096;-81
2022/12/15 09:06:11;;;;;;;57.13;25.73;;;0.10;99.90;;;;;;4834885;29;20089;-82
2022/12/15 09:08:38;;;;;;;60.03;29.63;;;0.10;99.90;;;;;;4835798;29;20172;-81
2022/12/15 09:11:05;;;;;;;57.80;29.45;;;0.20;99.90;;;;;;4841143;29;20066;-81
2022/12/15 09:13:32;;;;;;;66.32;31.77;;;0.20;99.90;;;;;;4839775;29;20065;-81
2022/12/15 09:16:07;;;;;;;56.33;27.15;;;0.20;99.90;;;;;;4837735;29;20061;-80
2022/12/15 09:18:36;;;;;;;49.15;25.58;;;0.20;99.90;;;;;;4831712;29;20060;-79
2022/12/15 09:21:05;;;;;;;51.42;27.33;;;0.20;99.90;;;;;;4834156;29;20130;-82
2022/12/15 09:23:34;;;;;;;56.33;27.40;;;0.20;99.90;;;;;;4837727;29;20054;-79
2022/12/15 09:26:05;;;;;;;53.43;27.30;;;0.30;99.90;;;;;;4839414;29;20068;-79
2022/12/15 09:28:31;;;;;;;50.20;23.63;;;0.20;99.90;;;;;;4831867;29;20439;-81
2022/12/15 09:31:05;;;;;;;60.30;28.77;;;0.20;99.90;;;;;;4829005;29;20058;-80
2022/12/15 09:33:32;;;;;;;58.50;29.17;;;0.20;99.90;;;;;;4828128;29;20059;-80
2022/12/15 09:36:00;;;;;;;60.13;29.92;;;0.30;99.90;;;;;;4828073;29;20087;-78
2022/12/15 09:38:27;;;;;;;61.67;28.63;;;0.20;99.90;;;;;;4839463;29;20061;-79
2022/12/15 09:40:54;;;;;;;56.05;27.92;;;0.20;99.90;;;;;;4833170;29;20505;-79
2022/12/15 09:43:26;;;;;;;60.03;27.52;;;0.20;99.90;;;;;;4831239;29;20454;-80
2022/12/15 09:46:31;;;;;;;50.85;27.90;;;0.20;99.90;;;;;;4829895;29;20087;-80
2022/12/15 09:49:01;;;;;;;59.95;28.73;;;0.20;99.90;;;;;;4828985;29;20054;-81
2022/12/15 09:51:42;;;;;;;59.17;28.38;;;0.20;99.90;;;;;;4829772;29;20130;-80
2022/12/15 09:54:10;;;;;;;60.97;28.80;;;0.20;99.90;;;;;;4841270;29;20053;-81
2022/12/15 09:56:47;;;;;;;55.25;28.00;;;0.20;99.90;;;;;;4838283;29;20049;-81
2022/12/15 09:59:25;;;;;;;62.45;27.45;;;0.20;99.90;;;;;;4837914;29;20058;-80
2022/12/15 10:02:15;;;;;;;52.85;27.48;;;0.20;99.90;;;;;;4831725;29;20051;-80
2022/12/15 10:05:10;;;;;;;57.13;27.60;;;0.20;99.90;;;;;;4835371;29;20054;-80
2022/12/15 10:07:43;;;;;;;53.33;26.50;;;0.20;99.90;;;;;;4838032;29;20061;-80
2022/12/15 10:10:23;;;;;;;52.67;27.73;;;0.20;99.90;;;;;;4827166;29;20058;-81
2022/12/15 10:12:54;;;;;;;62.95;30.50;;;0.20;99.90;;;;;;4827072;29;20065;-81
2022/12/15 10:15:37;;;;;;;62.80;30.90;;;0.20;99.90;;;;;;4840715;29;20115;-81
2022/12/15 10:18:21;;;;;;;61.92;29.02;;;0.10;99.90;;;;;;4836778;29;20045;-77
2022/12/15 10:20:51;;;;;;;62.15;28.90;;;0.10;99.90;;;;;;4836089;29;20074;-82
2022/12/15 10:23:17;;;;;;;62.22;28.90;;;0.10;99.90;;;;;;4836046;29;20586;-80
2022/12/15 10:25:57;;;;;;;63.13;30.77;;;0.10;99.90;;;;;;4834981;29;20062;-80
2022/12/15 10:28:27;;;;;;;;;;;0.10;99.90;;;;;;4841211;29;20463;-79
2022/12/15 10:31:00;;;;;;;65.93;32.35;;;0.00;99.90;;;;;;4839325;29;19928;-81
2022/12/15 10:33:34;;;;;;;69.75;30.80;;;0.00;99.90;;;;;;4827354;29;20054;-80
2022/12/15 10:36:04;;;;;;;67.53;29.33;;;0.00;99.90;;;;;;4838754;29;20140;-80
2022/12/15 10:38:41;;;;;;;67.60;31.67;;;0.00;99.90;;;;;;4832839;29;20137;-82
2022/12/15 10:41:11;;;;;;;72.25;32.25;;;0.00;99.90;;;;;;4833093;29;20050;-80
2022/12/15 10:43:40;;;;;;;65.20;31.73;;;0.00;99.90;;;;;;4835753;29;20054;-81
2022/12/15 10:46:12;;;;;;;67.63;32.75;;;0.10;99.90;;;;;;4851807;29;20066;-83
2022/12/15 10:48:42;;;;;;;60.75;28.83;;;0.10;99.90;;;;;;4839786;29;20060;-81
2022/12/15 10:51:29;;;;;;;68.55;32.05;;;0.10;99.90;;;;;;4838456;29;20054;-80
2022/12/15 10:53:59;;;;;;;64.13;29.70;;;0.10;99.90;;;;;;4831937;29;20058;-81
2022/12/15 10:56:28;;;;;;;60.08;29.83;;;0.20;99.90;;;;;;4837601;29;20054;-81
2022/12/15 10:59:21;;;;;;;57.13;27.60;;;0.20;99.90;;;;;;4831274;29;20050;-81
2022/12/15 11:01:48;;;;;;;56.85;29.25;;;0.10;99.90;;;;;;4845612;29;20056;-77
2022/12/15 11:04:25;;;;;;;57.10;30.15;;;0.10;99.90;;;;;;4840248;29;20111;-79
2022/12/15 11:07:01;;;;;;;64.05;30.02;;;0.10;99.90;;;;;;4840609;29;20054;-80
2022/12/15 11:09:34;;;;;;;61.75;30.70;;;0.10;99.90;;;;;;4840388;29;20050;-81
2022/12/15 11:14:54;;;;;;;58.85;29.60;;;0.10;99.90;;;;;;4829834;29;20065;-81
2022/12/15 11:17:22;;;;;;;65.35;31.52;;;0.10;99.90;;;;;;4834160;29;20057;-81
2022/12/15 11:20:01;;;;;;;61.55;30.13;;;0.10;99.90;;;;;;4831039;29;20425;-80
2022/12/15 11:22:29;;;;;;;;;;;0.10;99.90;;;;;;4830183;29;20508;-79
2022/12/15 11:25:05;;;;;;;60.03;27.60;;;0.10;99.90;;;;;;4833030;29;19931;-80
2022/12/15 11:27:42;;;;;;;62.45;29.00;;;0.20;99.90;;;;;;4836284;29;20436;-79
2022/12/15 11:30:13;;;;;;;62.70;29.58;;;0.20;99.90;;;;;;4835259;29;20050;-79
2022/12/15 11:32:47;;;;;;;59.47;30.00;;;0.10;99.90;;;;;;4829451;29;20134;-81
2022/12/15 11:35:19;;;;;;;67.60;30.80;;;0.20;99.90;;;;;;4840733;29;20098;-80
2022/12/15 11:37:55;;;;;;;67.65;31.08;;;0.10;99.90;;;;;;4843435;29;20052;-80
2022/12/15 11:40:38;;;;;;;63.50;31.02;;;0.20;99.90;;;;;;4843237;29;20120;-81
2022/12/15 11:43:32;;;;;;;65.60;31.98;;;0.20;99.90;;;;;;4834130;29;20102;-79
2022/12/15 11:46:16;;;;;;;62.00;31.63;;;0.30;99.90;;;;;;4835618;29;20089;-81
2022/12/15 11:49:11;;;;;;;68.65;33.42;;;0.30;99.90;;;;;;4833674;29;20046;-80
2022/12/15 11:51:38;;;;;;;75.97;34.03;;;0.20;99.90;;;;;;4840366;29;20058;-79
2022/12/15 11:54:26;;;;;;;66.10;32.50;;;0.30;99.90;;;;;;4834473;29;20054;-81
2022/12/15 11:57:06;;;;;;;73.13;31.85;;;0.30;99.90;;;;;;4829995;29;20053;-81
2022/12/15 12:00:01;;;;;;;72.20;34.33;;;0.30;99.90;;;;;;4833230;29;20058;-81
2022/12/15 12:02:47;;;;;;;70.72;33.45;;;0.30;99.90;;;;;;4828429;29;20085;-80
2022/12/15 12:05:41;;;;;;;74.03;33.90;;;0.30;99.90;;;;;;4835822;29;20085;-80
2022/12/15 12:08:49;;;;;;;71.38;31.83;;;0.30;99.90;;;;;;4837088;29;20148;-81
2022/12/15 12:11:35;;;;;;;78.53;35.13;;;0.20;99.90;;;;;;4835024;29;20141;-80
2022/12/15 12:14:17;;;;;;;83.63;35.08;;;0.30;99.90;;;;;;4832568;29;20061;-80
2022/12/15 12:17:10;;;;;;;77.07;32.88;;;0.30;99.90;;;;;;4838040;29;20057;-82
2022/12/15 12:19:41;;;;;;;79.35;35.13;;;0.30;99.90;;;;;;4827462;29;20054;-81
2022/12/15 12:22:29;;;;;;;76.63;35.78;;;0.20;99.90;;;;;;4833827;29;20421;-80
2022/12/15 12:25:03;;;;;;;82.07;33.85;;;0.20;99.90;;;;;;4828636;29;20050;-81
2022/12/15 12:27:39;;;;;;;79.50;35.88;;;0.20;99.90;;;;;;4830862;29;20060;-82
2022/12/15 12:30:13;;;;;;;71.45;33.10;;;0.20;99.90;;;;;;4833123;29;20050;-81
2022/12/15 12:33:05;;;;;;;81.10;34.53;;;0.10;99.90;;;;;;4837557;29;20050;-78
2022/12/15 12:36:09;;;;;;;84.40;33.33;;;0.10;99.90;;;;;;4838243;29;20049;-79
2022/12/15 12:38:44;;;;;;;80.18;34.67;;;0.00;99.90;;;;;;4824981;29;20114;-80
2022/12/15 12:41:26;;;;;;;80.22;34.97;;;0.00;99.90;;;;;;4846445;29;20073;-80
2022/12/15 12:44:00;;;;;;;76.55;34.70;;;0.10;99.90;;;;;;4847083;29;20053;-80
2022/12/15 12:46:29;;;;;;;85.88;38.00;;;0.10;99.90;;;;;;4841913;29;20065;-77
2022/12/15 12:49:14;;;;;;;88.60;35.30;;;0.00;99.90;;;;;;4840789;29;20058;-80
2022/12/15 12:51:41;;;;;;;76.95;33.92;;;0.00;99.90;;;;;;4836613;29;20133;-80
2022/12/15 12:54:34;;;;;;;88.78;37.05;;;-0.10;99.90;;;;;;4839848;29;20054;-80
2022/12/15 12:57:10;;;;;;;87.55;38.20;;;-0.10;99.90;;;;;;4832833;29;20049;-82
2022/12/15 12:59:40;;;;;;;88.28;37.33;;;-0.10;99.90;;;;;;4838674;29;20057;-80
2022/12/15 13:02:13;;;;;;;83.72;36.55;;;0.00;99.90;;;;;;4854136;24;20109;-79
2022/12/15 13:04:48;;;;;;;102.90;40.45;;;-0.10;99.90;;;;;;4846901;29;20531;-79
2022/12/15 13:07:37;;;;;;;103.07;40.40;;;0.00;99.90;;;;;;4848944;29;20065;-81
2022/12/15 13:10:07;;;;;;;100.38;40.15;;;0.00;99.90;;;;;;4848662;29;20050;-81
2022/12/15 13:12:58;;;;;;;94.30;38.60;;;0.00;99.90;;;;;;4847512;29;20058;-78
2022/12/15 13:15:31;;;;;;;98.32;39.55;;;0.00;99.90;;;;;;4836541;29;20050;-79
2022/12/15 13:18:05;;;;;;;98.68;39.15;;;0.00;99.90;;;;;;4842303;29;20053;-78
2022/12/15 13:20:36;;;;;;;96.43;38.50;;;0.00;99.90;;;;;;4838914;29;20089;-80
2022/12/15 13:23:38;;;;;;;101.68;43.28;;;-0.10;99.90;;;;;;4840116;29;20053;-79
2022/12/15 13:26:05;;;;;;;106.93;41.38;;;-0.10;99.90;;;;;;4817332;29;20057;-79
2022/12/15 13:28:35;;;;;;;100.88;39.30;;;-0.10;99.90;;;;;;4840914;29;20580;-79
2022/12/15 13:31:26;;;;;;;105.70;42.47;;;-0.20;99.90;;;;;;4840512;29;20054;-78
2022/12/15 13:34:25;;;;;;;98.22;38.35;;;-0.20;99.90;;;;;;4838486;29;20057;-79
2022/12/15 13:36:57;;;;;;;105.03;42.13;;;-0.20;99.90;;;;;;4839856;29;20408;-78
2022/12/15 13:39:27;;;;;;;110.35;43.75;;;-0.10;99.90;;;;;;4837210;29;20500;-79
2022/12/15 13:41:54;;;;;;;105.40;42.13;;;-0.10;99.90;;;;;;4840278;29;20404;-80
2022/12/15 13:44:45;;;;;;;99.07;37.38;;;-0.10;99.90;;;;;;4840235;29;20091;-79
2022/12/15 13:47:24;;;;;;;90.78;37.63;;;-0.10;99.90;;;;;;4832981;29;20077;-78
2022/12/15 13:49:57;;;;;;;98.20;39.08;;;-0.10;99.90;;;;;;4837145;29;20062;-80
2022/12/15 13:52:28;;;;;;;106.63;41.00;;;-0.10;99.90;;;;;;4840398;29;20086;-79
2022/12/15 13:55:22;;;;;;;95.60;38.65;;;0.00;99.90;;;;;;4849677;29;20064;-81
2022/12/15 13:57:58;;;;;;;110.60;41.57;;;0.00;99.90;;;;;;4859523;29;20054;-81
2022/12/15 14:00:25;;;;;;;106.18;40.22;;;0.00;99.90;;;;;;4861497;29;20034;-81
2022/12/15 14:03:09;;;;;;;91.20;38.17;;;0.00;99.90;;;;;;4856083;29;20054;-79
2022/12/15 14:05:40;;;;;;;96.20;39.28;;;0.00;99.90;;;;;;4859154;29;20098;-78
2022/12/15 14:08:11;;;;;;;97.75;36.80;;;0.00;99.90;;;;;;4849622;29;20477;-79
2022/12/15 14:10:42;;;;;;;102.15;39.25;;;0.00;99.90;;;;;;4842061;29;20073;-78
2022/12/15 14:13:35;;;;;;;115.93;42.67;;;0.00;99.90;;;;;;4835404;29;20069;-77
2022/12/15 14:16:18;;;;;;;94.78;36.67;;;0.00;99.90;;;;;;4830681;29;20047;-76
2022/12/15 14:19:07;;;;;;;100.78;40.25;;;0.00;99.90;;;;;;4839761;29;20046;-77
2022/12/15 14:21:34;;;;;;;103.30;38.42;;;-0.10;99.90;;;;;;4841588;29;20062;-82
2022/12/15 14:24:00;;;;;;;106.30;39.15;;;-0.10;99.90;;;;;;4838982;29;20050;-78
2022/12/15 14:26:47;;;;;;;101.95;38.20;;;-0.10;99.90;;;;;;4832584;29;20062;-77
2022/12/15 14:29:16;;;;;;;100.05;37.83;;;-0.10;99.90;;;;;;4831602;29;20099;-78
2022/12/15 14:31:55;;;;;;;93.57;38.45;;;-0.20;99.90;;;;;;4834592;29;20454;-78
2022/12/15 14:34:28;;;;;;;103.85;38.53;;;-0.20;99.90;;;;;;4839706;29;20054;-79
2022/12/15 14:36:58;;;;;;;100.38;38.95;;;-0.20;99.90;;;;;;4838486;29;20095;-77
2022/12/15 14:39:27;;;;;;;97.63;36.00;;;-0.20;99.90;;;;;;4836139;29;20137;-77
2022/12/15 14:41:56;;;;;;;101.60;39.78;;;-0.20;99.90;;;;;;4836172;29;20055;-78
2022/12/15 14:44:34;;;;;;;92.07;36.65;;;-0.20;99.90;;;;;;4844183;29;20508;-78
2022/12/15 14:47:15;;;;;;;110.13;41.40;;;-0.30;99.90;;;;;;4834932;29;20583;-78
2022/12/15 14:49:44;;;;;;;108.10;43.10;;;-0.20;99.90;;;;;;4830765;29;20050;-78
2022/12/15 14:52:38;;;;;;;84.05;35.60;;;-0.20;99.90;;;;;;4828680;29;20073;-80
2022/12/15 14:55:25;;;;;;;113.43;41.53;;;-0.20;99.90;;;;;;4829930;29;20069;-78
2022/12/15 14:57:52;;;;;;;97.00;38.25;;;-0.20;99.90;;;;;;4836242;29;20053;-78
2022/12/15 15:00:34;;;;;;;111.28;40.65;;;-0.10;99.90;;;;;;4837225;29;20049;-78
2022/12/15 15:03:13;;;;;;;105.88;39.70;;;-0.10;99.90;;;;;;4836315;29;20046;-78
2022/12/15 15:05:46;;;;;;;102.53;39.30;;;-0.10;99.90;;;;;;4835182;29;20110;-78
2022/12/15 15:08:18;;;;;;;100.45;40.95;;;-0.20;99.90;;;;;;4836999;29;20053;-77
2022/12/15 15:10:44;;;;;;;107.03;41.92;;;-0.20;99.90;;;;;;4833494;29;20049;-77
2022/12/15 15:13:25;;;;;;;117.25;42.28;;;-0.20;99.90;;;;;;4833890;29;20054;-78
2022/12/15 15:15:55;;;;;;;122.10;45.08;;;-0.20;99.90;;;;;;4839158;29;20060;-77
2022/12/15 15:18:25;;;;;;;110.85;41.63;;;-0.20;99.90;;;;;;4833288;29;20053;-77
2022/12/15 15:21:04;;;;;;;117.13;42.28;;;-0.20;99.90;;;;;;4839250;29;20100;-79
2022/12/15 15:23:31;;;;;;;112.50;40.47;;;-0.30;99.90;;;;;;4838382;29;20065;-77
2022/12/15 15:26:03;;;;;;;96.68;32.10;;;-0.30;99.90;;;;;;4838558;29;20066;-79
2022/12/15 15:28:41;;;;;;;112.43;41.13;;;-0.40;99.90;;;;;;4835254;29;20058;-79
2022/12/15 15:31:23;;;;;;;102.05;38.00;;;-0.40;99.90;;;;;;4846828;29;20086;-79
2022/12/15 15:33:50;;;;;;;102.10;38.67;;;-0.40;99.90;;;;;;4849373;29;20058;-79
2022/12/15 15:36:17;;;;;;;115.60;40.63;;;-0.40;99.90;;;;;;4832686;29;20050;-79
2022/12/15 15:38:45;;;;;;;101.85;39.22;;;-0.50;99.90;;;;;;4834143;29;20516;-79
2022/12/15 15:41:17;;;;;;;113.70;43.60;;;-0.50;99.90;;;;;;4840292;29;20053;-79